Terminal Aerodrome Forecast
Issued by NWS

Home | Current Version | Previous Version | Text Only | Print | Product List | Glossary On
Versions: 1 2 3 4 5 6 7 8 9 10 11 12
000
FTUS45 KABQ 251134
TAFTCC
TAF
KTCC 251134Z 2512/2612 01005KT P6SM FEW120
     FM252100 12010KT P6SM VCSH SCT080 BKN120
     FM252300 09008KT P6SM VCTS BKN070CB OVC100
      TEMPO 2523/2602 VRB15G25KT 6SM TSRA BKN060CB
     FM260200 13008KT P6SM -SHRA BKN080 OVC140
     FM260600 VRB05KT P6SM BKN080=

USA.gov is the U.S. government's official web portal to all federal, state and local government web resources and services.